Time;durP1;ratioP1;P1;durP2;ratioP2;P2;SDS_P1;SDS_P2;PMS_P1;PMS_P2;Temp;Humidity;BMP_temperature;BMP_pressure;BME280_temperature;BME280_humidity;BME280_pressure;Samples;Min_cycle;Max_cycle;Signal;HPM_P1;HPM_P2
2023/09/02 00:01:46;;;;;;;;;7.00;7.00;;;;;20.77;62.30;99291.00;5074794;27;45473;-67
2023/09/02 00:04:11;;;;;;;;;5.25;5.25;;;;;20.77;62.03;99285.63;5075254;28;45421;-67
2023/09/02 00:06:36;;;;;;;;;7.25;5.25;;;;;20.75;62.53;99291.13;5075194;28;45620;-67
2023/09/02 00:09:02;;;;;;;;;6.50;6.50;;;;;20.74;62.33;99299.28;5074877;28;46666;-67
2023/09/02 00:11:27;;;;;;;;;12.75;9.50;;;;;20.73;62.73;99297.56;5074446;28;45376;-67
2023/09/02 00:13:53;;;;;;;;;8.50;6.50;;;;;20.71;62.62;99302.19;5074842;28;45436;-67
2023/09/02 00:16:18;;;;;;;;;6.25;5.25;;;;;20.69;62.75;99298.78;5073127;28;45553;-67
2023/09/02 00:18:45;;;;;;;;;7.25;6.00;;;;;20.68;63.03;99303.28;5074595;28;45467;-67
2023/09/02 00:21:11;;;;;;;;;7.20;6.60;;;;;20.68;62.81;99303.28;5074799;28;45408;-67
2023/09/02 00:23:39;;;;;;;;;7.40;6.40;;;;;20.67;63.06;99309.59;5074559;28;45407;-67
2023/09/02 00:26:05;;;;;;;;;8.00;7.00;;;;;20.66;63.16;99312.41;5073874;28;45421;-67
2023/09/02 00:28:30;;;;;;;;;6.75;6.75;;;;;20.63;63.17;99312.63;5074154;28;45450;-67
2023/09/02 00:30:55;;;;;;;;;8.75;8.25;;;;;20.57;63.11;99305.97;5074727;28;45350;-67
2023/09/02 00:33:21;;;;;;;;;6.75;5.50;;;;;20.54;63.30;99299.00;5074963;28;45427;-68
2023/09/02 00:35:46;;;;;;;;;6.50;5.00;;;;;20.52;63.75;99295.59;5074783;28;45475;-67
2023/09/02 00:38:12;;;;;;;;;9.50;7.00;;;;;20.52;63.83;99308.13;5074751;28;46167;-67
2023/09/02 00:40:42;;;;;;;;;8.50;6.75;;;;;20.47;63.82;99304.94;5074670;28;45445;-67
2023/09/02 00:43:07;;;;;;;;;6.00;5.00;;;;;20.41;64.17;99305.44;5074271;28;45427;-67
2023/09/02 00:45:34;;;;;;;;;7.25;6.25;;;;;20.38;64.67;99311.03;5074739;28;45516;-67
2023/09/02 00:48:00;;;;;;;;;8.20;7.00;;;;;20.38;64.20;99303.84;5074640;28;45497;-68
2023/09/02 00:50:26;;;;;;;;;7.50;5.75;;;;;20.37;64.17;99310.19;5073939;28;45509;-68
2023/09/02 00:52:51;;;;;;;;;9.00;7.75;;;;;20.37;64.63;99314.69;5074384;28;45466;-67
2023/09/02 00:55:17;;;;;;;;;11.25;8.00;;;;;20.37;65.03;99320.91;5074557;28;45420;-67
2023/09/02 00:57:43;;;;;;;;;8.00;6.00;;;;;20.35;65.09;99325.47;5073618;27;45475;-67
2023/09/02 01:00:09;;;;;;;;;7.20;7.20;;;;;20.31;65.41;99328.50;5074274;28;45436;-68
2023/09/02 01:02:36;;;;;;;;;7.00;7.00;;;;;20.23;65.09;99330.94;5074278;28;45364;-68
2023/09/02 01:05:02;;;;;;;;;10.25;8.00;;;;;20.16;65.41;99328.69;5073813;27;45304;-67
2023/09/02 01:07:29;;;;;;;;;7.25;6.25;;;;;20.10;66.31;99333.69;5072551;28;48175;-67
2023/09/02 01:09:55;;;;;;;;;4.20;4.20;;;;;20.06;66.15;99333.06;5073917;28;45439;-67
2023/09/02 01:12:21;;;;;;;;;5.40;5.40;;;;;20.00;66.05;99338.00;5074019;28;45507;-67
2023/09/02 01:14:46;;;;;;;;;6.75;6.75;;;;;19.94;66.51;99339.31;5072772;28;45487;-67
2023/09/02 01:17:12;;;;;;;;;7.50;6.75;;;;;19.89;66.77;99338.81;5073976;28;46093;-67
2023/09/02 01:19:40;;;;;;;;;6.00;6.00;;;;;19.84;66.69;99338.31;5073936;27;45411;-67
2023/09/02 01:22:48;;;;;;;;;8.20;7.60;;;;;19.79;67.44;99341.31;5073859;28;45391;-67
2023/09/02 01:25:28;;;;;;;;;9.20;6.20;;;;;19.75;67.34;99336.34;5053142;28;45411;-67
2023/09/02 01:28:07;;;;;;;;;9.60;7.00;;;;;19.74;67.48;99337.31;5073002;28;45398;-68
2023/09/02 01:30:34;;;;;;;;;9.00;5.80;;;;;19.71;68.11;99343.72;5073582;28;45367;-67
2023/09/02 01:33:03;;;;;;;;;8.00;6.60;;;;;19.70;67.63;99338.47;5073616;28;45455;-67
2023/09/02 01:35:32;;;;;;;;;7.50;7.00;;;;;19.70;67.62;99344.69;5072137;27;46324;-68
2023/09/02 01:38:00;;;;;;;;;7.20;7.20;;;;;19.70;67.95;99338.47;5073814;28;45501;-67
2023/09/02 01:40:27;;;;;;;;;8.00;6.20;;;;;19.69;68.08;99342.13;5073219;28;45715;-67
2023/09/02 01:42:56;;;;;;;;;7.60;7.60;;;;;19.65;68.42;99329.94;5071765;28;45381;-67
2023/09/02 01:45:24;;;;;;;;;8.00;7.25;;;;;19.61;68.40;99337.31;5073574;27;45297;-67
2023/09/02 01:47:51;;;;;;;;;9.20;7.40;;;;;19.59;68.77;99338.44;5073402;28;45513;-67
2023/09/02 01:50:19;;;;;;;;;6.20;5.40;;;;;19.59;67.77;99327.72;5073405;28;45439;-67
2023/09/02 01:52:47;;;;;;;;;6.00;6.00;;;;;19.59;68.24;99327.72;5073669;28;45295;-67
2023/09/02 01:55:12;;;;;;;;;6.25;5.50;;;;;19.59;68.44;99327.72;5073626;28;45376;-67
2023/09/02 01:57:39;;;;;;;;;8.00;7.00;;;;;19.59;68.58;99330.41;5072850;28;46249;-67
2023/09/02 02:00:05;;;;;;;;;6.00;6.00;;;;;19.59;68.80;99336.63;5073474;28;45516;-67
2023/09/02 02:02:31;;;;;;;;;9.20;6.60;;;;;19.58;68.92;99339.41;5075329;28;45450;-67
2023/09/02 02:05:02;;;;;;;;;9.50;8.75;;;;;19.58;68.32;99337.59;5077243;28;45435;-67
2023/09/02 02:07:33;;;;;;;;;6.60;6.00;;;;;19.57;68.81;99335.88;5076524;28;45566;-67
2023/09/02 02:10:03;;;;;;;;;6.20;4.00;;;;;19.59;68.80;99327.72;5076793;27;45522;-67
2023/09/02 02:12:30;;;;;;;;;6.50;6.00;;;;;19.59;68.37;99325.91;5076813;28;45514;-67
2023/09/02 02:14:55;;;;;;;;;7.00;5.75;;;;;19.60;68.66;99330.31;5076774;28;45497;-67
2023/09/02 02:17:21;;;;;;;;;5.75;5.75;;;;;19.61;68.98;99334.66;5076759;28;45522;-68
2023/09/02 02:19:46;;;;;;;;;2.00;2.00;;;;;19.62;68.81;99330.16;5076614;28;45440;-67
2023/09/02 02:22:12;;;;;;;;;8.25;6.25;;;;;19.64;69.03;99326.41;5076550;27;45456;-67
2023/09/02 02:24:37;;;;;;;;;6.00;6.00;;;;;19.64;68.68;99330.91;5076661;28;45405;-67
2023/09/02 02:27:03;;;;;;;;;6.50;4.00;;;;;19.63;68.73;99340.75;5073984;28;46391;-67
2023/09/02 02:29:28;;;;;;;;;7.50;6.25;;;;;19.63;68.73;99338.06;5076306;28;45406;-67
2023/09/02 02:31:55;;;;;;;;;7.25;6.75;;;;;19.63;68.45;99327.38;5092086;27;45440;-67
2023/09/02 02:34:20;;;;;;;;;5.25;5.00;;;;;19.65;67.83;99333.47;5076691;27;45383;-67
2023/09/02 02:36:45;;;;;;;;;5.50;4.75;;;;;19.65;68.00;99333.47;5076422;28;46070;-67
2023/09/02 02:39:11;;;;;;;;;8.25;7.25;;;;;19.65;68.65;99329.94;5075933;28;45546;-67
2023/09/02 02:41:36;;;;;;;;;6.00;6.00;;;;;19.64;68.27;99330.91;5076100;28;45381;-67
2023/09/02 02:44:02;;;;;;;;;7.50;7.50;;;;;19.64;68.75;99336.25;5076390;28;45623;-67
2023/09/02 02:46:28;;;;;;;;;5.00;5.00;;;;;19.63;68.63;99330.03;5076421;28;46426;-67
2023/09/02 02:48:53;;;;;;;;;8.50;7.25;;;;;19.63;68.61;99327.38;5076240;28;45352;-67
2023/09/02 02:51:19;;;;;;;;;8.00;7.00;;;;;19.62;68.72;99328.34;5076427;28;45351;-67
2023/09/02 02:53:45;;;;;;;;;5.00;5.00;;;;;19.62;68.50;99331.00;5076296;28;45577;-67
2023/09/02 02:56:10;;;;;;;;;7.60;5.60;;;;;19.62;69.09;99327.47;5075880;28;46120;-68
2023/09/02 02:58:35;;;;;;;;;8.25;8.25;;;;;19.61;68.91;99336.47;5076383;28;45424;-67
2023/09/02 03:01:04;;;;;;;;;4.75;3.75;;;;;19.58;69.32;99326.88;5074795;28;45861;-67
2023/09/02 03:03:29;;;;;;;;;8.25;7.75;;;;;19.57;69.30;99318.97;5076034;28;45403;-67
2023/09/02 03:05:55;;;;;;;;;8.75;8.00;;;;;19.55;69.37;99316.41;5075590;28;45518;-67
2023/09/02 03:08:20;;;;;;;;;6.00;6.00;;;;;19.51;69.69;99322.94;5075319;27;45364;-67
2023/09/02 03:10:46;;;;;;;;;9.50;6.75;;;;;19.49;70.08;99316.81;5075592;28;45405;-67
2023/09/02 03:13:11;;;;;;;;;5.50;5.00;;;;;19.47;69.55;99321.41;5075835;28;45518;-67
2023/09/02 03:15:36;;;;;;;;;8.25;6.00;;;;;19.45;69.74;99320.66;5075988;27;46330;-67
2023/09/02 03:18:02;;;;;;;;;8.75;6.75;;;;;19.41;69.65;99314.72;5074515;28;45404;-67
2023/09/02 03:20:27;;;;;;;;;6.00;4.75;;;;;19.41;70.10;99312.03;5075421;28;45369;-68
2023/09/02 03:22:53;;;;;;;;;6.75;5.00;;;;;19.37;70.00;99310.56;5074120;28;46049;-67
2023/09/02 03:25:18;;;;;;;;;7.25;6.00;;;;;19.38;70.47;99320.28;5075875;28;46216;-67
2023/09/02 03:27:43;;;;;;;;;7.25;6.50;;;;;19.37;70.42;99321.25;5075460;28;45445;-67
2023/09/02 03:30:09;;;;;;;;;9.00;9.00;;;;;19.37;70.23;99315.03;5076058;28;45881;-67
2023/09/02 03:32:35;;;;;;;;;6.00;6.00;;;;;19.37;70.08;99323.91;5075508;28;45546;-67
2023/09/02 03:35:01;;;;;;;;;6.00;5.50;;;;;19.37;70.67;99312.38;5075096;28;46468;-67
2023/09/02 03:37:27;;;;;;;;;8.60;7.40;;;;;19.35;70.77;99309.81;5075370;28;45532;-67
2023/09/02 03:39:57;;;;;;;;;8.00;5.50;;;;;19.36;70.87;99314.19;5074033;28;45431;-67
2023/09/02 03:42:22;;;;;;;;;7.00;7.00;;;;;19.36;70.62;99307.97;5075203;28;45538;-67
2023/09/02 03:44:48;;;;;;;;;8.25;5.50;;;;;19.37;70.90;99315.03;5075011;28;45640;-67
2023/09/02 03:47:14;;;;;;;;;3.00;2.00;;;;;19.36;70.50;99311.50;5075242;28;45416;-67
2023/09/02 03:49:39;;;;;;;;;6.00;6.00;;;;;19.33;70.34;99314.41;5075198;28;45515;-67
2023/09/02 03:52:05;;;;;;;;;10.00;7.00;;;;;19.29;70.64;99306.72;5090738;27;45531;-67
2023/09/02 03:54:30;;;;;;;;;5.00;4.75;;;;;19.27;70.84;99306.00;5075099;28;46176;-68
2023/09/02 03:56:55;;;;;;;;;6.25;5.50;;;;;19.25;71.20;99307.94;5074825;28;45443;-67
2023/09/02 03:59:21;;;;;;;;;3.50;2.75;;;;;19.22;71.28;99311.66;5075328;28;45771;-67
2023/09/02 04:01:46;;;;;;;;;7.25;7.00;;;;;19.17;71.55;99301.31;5075403;28;45377;-67
2023/09/02 04:04:11;;;;;;;;;8.00;7.00;;;;;19.14;71.59;99304.19;5074979;28;46135;-67
2023/09/02 04:06:38;;;;;;;;;7.00;5.25;;;;;19.12;71.35;99311.47;5074993;28;45388;-67
2023/09/02 04:09:05;;;;;;;;;8.40;6.80;;;;;19.10;71.38;99317.91;5075193;27;45417;-67
2023/09/02 04:11:31;;;;;;;;;8.25;7.25;;;;;19.07;71.71;99324.31;5074584;27;45552;-67
2023/09/02 04:13:56;;;;;;;;;7.75;7.00;;;;;19.03;71.54;99320.16;5075101;28;45434;-67
2023/09/02 04:16:22;;;;;;;;;8.25;7.00;;;;;19.01;71.50;99324.75;5075179;27;45402;-67
2023/09/02 04:18:47;;;;;;;;;8.75;7.75;;;;;18.98;71.59;99327.63;5074991;28;45474;-67
2023/09/02 04:21:12;;;;;;;;;6.50;6.50;;;;;18.95;72.18;99321.66;5074515;28;45473;-67
2023/09/02 04:23:38;;;;;;;;;7.00;7.00;;;;;18.93;72.67;99327.13;5073959;28;45746;-67
2023/09/02 04:26:04;;;;;;;;;9.25;7.25;;;;;18.91;72.31;99323.72;5073281;27;45367;-67
2023/09/02 04:28:30;;;;;;;;;8.00;7.00;;;;;18.89;72.43;99332.78;5074455;28;45436;-67
2023/09/02 04:30:56;;;;;;;;;7.50;6.75;;;;;18.86;72.87;99327.66;5074446;27;45540;-67
2023/09/02 04:33:23;;;;;;;;;8.00;6.00;;;;;18.83;72.54;99334.94;5074474;28;46358;-67
2023/09/02 04:35:49;;;;;;;;;12.00;9.40;;;;;18.82;73.08;99343.03;5074167;27;45429;-67
2023/09/02 04:38:15;;;;;;;;;11.00;10.00;;;;;18.80;73.17;99339.63;5074590;28;45400;-67
2023/09/02 04:40:42;;;;;;;;;9.00;9.00;;;;;18.78;73.16;99349.56;5089711;27;45359;-66
2023/09/02 04:43:09;;;;;;;;;11.25;9.75;;;;;18.76;73.61;99357.69;5074503;28;46283;-67
2023/09/02 04:45:36;;;;;;;;;10.40;8.00;;;;;18.75;73.57;99355.13;5074367;28;45449;-67
2023/09/02 04:48:03;;;;;;;;;8.25;8.25;;;;;18.75;73.58;99364.00;5074610;28;45527;-67
2023/09/02 04:50:28;;;;;;;;;8.00;8.00;;;;;18.74;73.30;99359.63;5072032;28;45569;-67
2023/09/02 04:52:55;;;;;;;;;6.25;5.00;;;;;18.74;73.29;99356.09;5072616;28;46309;-67
2023/09/02 04:55:21;;;;;;;;;8.00;8.00;;;;;18.75;73.62;99365.81;5072458;28;45502;-67
2023/09/02 04:57:46;;;;;;;;;10.00;8.75;;;;;18.75;74.03;99368.50;5072173;28;45337;-67
2023/09/02 05:00:12;;;;;;;;;7.75;6.00;;;;;18.73;73.70;99371.28;5072243;28;45586;-67
2023/09/02 05:02:38;;;;;;;;;8.00;8.00;;;;;18.75;74.00;99382.69;5072702;28;45645;-67
2023/09/02 05:05:04;;;;;;;;;6.60;6.60;;;;;18.75;73.58;99381.84;5072366;27;45394;-67
2023/09/02 05:07:29;;;;;;;;;7.50;6.50;;;;;18.75;73.46;99384.53;5071980;28;45501;-67
2023/09/02 05:09:54;;;;;;;;;6.50;6.50;;;;;18.75;73.69;99390.72;5072154;28;45551;-67
2023/09/02 05:12:20;;;;;;;;;8.25;6.25;;;;;18.75;73.80;99395.19;5071687;28;45564;-67
2023/09/02 05:14:45;;;;;;;;;6.25;6.25;;;;;18.70;73.71;99398.19;5072368;28;45499;-67
2023/09/02 05:17:11;;;;;;;;;6.00;6.00;;;;;18.63;74.55;99401.38;5072383;27;45454;-67
2023/09/02 05:19:36;;;;;;;;;7.00;7.00;;;;;18.54;75.64;99405.50;5071638;28;45834;-66
2023/09/02 05:22:03;;;;;;;;;5.75;5.75;;;;;18.46;75.17;99405.16;5071498;27;45453;-67
2023/09/02 05:24:28;;;;;;;;;9.60;8.40;;;;;18.42;75.34;99409.88;5072195;27;45458;-67
2023/09/02 05:26:54;;;;;;;;;8.00;8.00;;;;;18.41;75.27;99408.16;5072010;27;45437;-67
2023/09/02 05:29:19;;;;;;;;;10.00;8.50;;;;;18.41;75.43;99402.81;5072341;28;45561;-67
2023/09/02 05:31:44;;;;;;;;;9.00;7.50;;;;;18.43;75.48;99406.22;5072078;27;46450;-67
2023/09/02 05:34:10;;;;;;;;;7.25;7.25;;;;;18.44;75.57;99410.59;5072193;28;45590;-67
2023/09/02 05:36:35;;;;;;;;;11.00;9.25;;;;;18.45;75.48;99414.97;5070903;28;45417;-67
2023/09/02 05:39:00;;;;;;;;;10.00;8.00;;;;;18.45;76.00;99406.97;5071799;28;45571;-67
2023/09/02 05:41:28;;;;;;;;;11.25;9.75;;;;;18.48;75.18;99408.56;5070994;28;46313;-67
2023/09/02 05:43:53;;;;;;;;;9.00;7.60;;;;;18.52;75.52;99403.91;5071611;28;45404;-67
2023/09/02 05:46:19;;;;;;;;;8.25;7.00;;;;;18.54;75.71;99408.19;5072040;28;45557;-67
2023/09/02 05:48:44;;;;;;;;;7.00;7.00;;;;;18.58;75.83;99406.16;5024345;27;1336117;-66
2023/09/02 05:51:10;;;;;;;;;8.75;8.75;;;;;18.63;75.56;99410.22;5072940;28;45389;-67
2023/09/02 05:53:35;;;;;;;;;10.75;8.75;;;;;18.69;75.08;99411.63;5073166;28;45461;-67
2023/09/02 05:56:00;;;;;;;;;7.00;7.00;;;;;18.73;74.86;99406.00;5073050;28;45436;-67
2023/09/02 05:58:27;;;;;;;;;7.00;7.00;;;;;18.76;74.46;99407.59;5073438;28;45499;-66
2023/09/02 06:00:52;;;;;;;;;8.00;8.00;;;;;18.80;74.79;99415.28;5073204;28;45517;-67
2023/09/02 06:03:18;;;;;;;;;11.00;9.75;;;;;18.83;74.72;99412.41;5072980;28;45442;-67
2023/09/02 06:05:43;;;;;;;;;3.75;3.75;;;;;18.85;74.84;99411.44;5073510;28;45478;-67
2023/09/02 06:08:09;;;;;;;;;9.75;8.50;;;;;18.90;74.57;99414.66;5073287;28;45503;-67
2023/09/02 06:10:35;;;;;;;;;8.50;7.00;;;;;18.91;74.31;99419.91;5072049;28;46118;-67
2023/09/02 06:13:01;;;;;;;;;10.60;9.40;;;;;18.97;74.36;99414.09;5072274;27;45395;-67
2023/09/02 06:15:26;;;;;;;;;9.50;8.50;;;;;18.99;74.48;99414.84;5072648;28;45412;-67
2023/09/02 06:17:52;;;;;;;;;11.75;10.00;;;;;19.03;74.16;99418.16;5072861;28;45579;-67
2023/09/02 06:20:20;;;;;;;;;10.75;10.50;;;;;19.06;74.33;99418.81;5072289;27;45728;-67
2023/09/02 06:22:45;;;;;;;;;11.60;10.40;;;;;19.09;74.02;99425.78;5072653;27;45553;-67
2023/09/02 06:25:11;;;;;;;;;13.75;12.00;;;;;19.12;74.42;99429.06;5072781;28;45510;-67
2023/09/02 06:27:37;;;;;;;;;14.25;13.50;;;;;19.12;73.71;99422.84;5072229;28;45459;-67
2023/09/02 06:30:03;;;;;;;;;12.50;11.00;;;;;19.11;73.83;99426.50;5072754;28;46503;-68
2023/09/02 06:32:28;;;;;;;;;11.50;9.25;;;;;19.13;73.74;99417.41;5072548;28;45410;-67
2023/09/02 06:34:53;;;;;;;;;12.75;9.50;;;;;19.15;73.60;99422.66;5071243;28;45583;-67
2023/09/02 06:37:19;;;;;;;;;11.00;10.00;;;;;19.20;74.09;99427.69;5072851;27;45423;-67
2023/09/02 06:39:45;;;;;;;;;10.50;9.75;;;;;19.24;74.25;99424.69;5072226;28;46705;-67
2023/09/02 06:42:10;;;;;;;;;15.25;13.25;;;;;19.28;73.74;99423.47;5072376;28;45372;-67
2023/09/02 06:44:35;;;;;;;;;9.75;7.25;;;;;19.35;73.56;99434.59;5070942;28;45640;-67
2023/09/02 06:47:01;;;;;;;;;7.75;7.50;;;;;19.40;73.47;99425.31;5072160;28;45474;-67
2023/09/02 06:49:26;;;;;;;;;10.00;10.00;;;;;19.47;73.88;99434.59;5074727;28;45372;-67
2023/09/02 06:51:52;;;;;;;;;10.50;10.00;;;;;19.55;73.17;99430.56;5076183;28;45393;-67
2023/09/02 06:54:17;;;;;;;;;9.75;9.75;;;;;19.61;72.72;99427.41;5076123;28;45363;-67
2023/09/02 06:56:44;;;;;;;;;11.00;9.75;;;;;19.68;72.37;99434.03;5074242;28;45415;-67
2023/09/02 06:59:09;;;;;;;;;10.20;10.20;;;;;19.73;72.53;99435.44;5075558;28;45482;-67
2023/09/02 07:01:34;;;;;;;;;12.00;9.50;;;;;19.79;72.29;99434.09;5075360;28;45428;-67
2023/09/02 07:04:00;;;;;;;;;11.25;9.00;;;;;19.83;71.69;99425.75;5075863;28;45919;-67
2023/09/02 07:06:25;;;;;;;;;11.50;10.25;;;;;19.89;71.87;99431.63;5075118;28;45455;-67
2023/09/02 07:08:51;;;;;;;;;8.25;8.00;;;;;19.96;71.55;99433.72;5074169;28;47418;-67
2023/09/02 07:11:17;;;;;;;;;11.25;10.50;;;;;20.03;71.15;99435.00;5074945;28;45364;-67
2023/09/02 07:13:45;;;;;;;;;15.50;12.25;;;;;20.10;71.10;99436.25;5075429;28;45462;-67
2023/09/02 07:16:11;;;;;;;;;14.25;13.25;;;;;20.15;70.91;99435.91;5075480;27;45408;-67
2023/09/02 07:18:36;;;;;;;;;8.50;8.00;;;;;20.22;70.67;99434.50;5075014;28;45331;-67
2023/09/02 07:21:04;;;;;;;;;11.00;10.25;;;;;20.28;70.19;99436.69;5074788;28;45443;-67
2023/09/02 07:23:31;;;;;;;;;9.00;9.00;;;;;20.34;70.17;99438.91;5075323;28;45377;-67
2023/09/02 07:26:01;;;;;;;;;4.00;4.00;;;;;20.40;69.80;99446.53;5074989;27;45450;-67
2023/09/02 07:28:30;;;;;;;;;10.00;8.80;;;;;20.45;69.90;99455.06;5074870;28;45647;-67
2023/09/02 07:31:01;;;;;;;;;10.80;10.80;;;;;20.53;69.88;99458.03;5073491;28;45470;-67
2023/09/02 07:33:26;;;;;;;;;10.75;10.75;;;;;20.59;69.56;99459.41;5074764;27;45447;-67
2023/09/02 07:35:52;;;;;;;;;17.25;15.25;;;;;20.66;69.39;99465.97;5073548;28;45565;-67
2023/09/02 07:38:18;;;;;;;;;12.25;12.00;;;;;20.74;69.45;99468.94;5074730;28;46792;-67
2023/09/02 07:40:43;;;;;;;;;9.25;9.25;;;;;20.82;69.70;99471.03;5074424;28;45398;-67
2023/09/02 07:43:08;;;;;;;;;12.00;10.00;;;;;20.87;68.85;99469.69;5074881;28;45388;-67
2023/09/02 07:45:34;;;;;;;;;4.25;3.75;;;;;20.91;67.97;99470.31;5072373;28;45572;-67
2023/09/02 07:47:59;;;;;;;;;10.00;7.75;;;;;20.89;68.17;99467.75;5072954;28;47334;-67
2023/09/02 07:50:25;;;;;;;;;6.00;6.00;;;;;20.90;68.20;99468.63;5072835;28;45492;-67
2023/09/02 07:52:50;;;;;;;;;9.00;8.25;;;;;20.90;68.39;99466.78;5072903;28;46037;-67
2023/09/02 07:55:15;;;;;;;;;10.00;7.50;;;;;20.89;67.98;99473.13;5073311;28;45448;-67
2023/09/02 07:57:41;;;;;;;;;10.25;8.00;;;;;20.89;68.15;99475.81;5074267;28;45506;-67
2023/09/02 08:00:10;;;;;;;;;9.50;9.50;;;;;20.91;68.42;99481.06;5073482;28;45504;-67
2023/09/02 08:02:35;;;;;;;;;10.60;8.00;;;;;20.92;68.13;99482.75;5074547;28;45515;-66
2023/09/02 08:05:01;;;;;;;;;9.00;9.00;;;;;20.94;68.61;99482.66;5074173;28;45419;-67
2023/09/02 08:07:26;;;;;;;;;9.50;9.50;;;;;20.97;68.04;99483.25;5074109;28;45321;-67
2023/09/02 08:09:51;;;;;;;;;9.00;8.50;;;;;20.97;67.97;99483.25;5074266;28;45418;-67
2023/09/02 08:12:17;;;;;;;;;9.00;9.00;;;;;20.96;68.38;99488.72;5072091;28;45487;-67
2023/09/02 08:14:42;;;;;;;;;8.75;8.75;;;;;20.93;67.90;99489.84;5073953;28;45425;-67
2023/09/02 08:17:08;;;;;;;;;11.00;8.75;;;;;20.92;67.97;99493.47;5073720;28;45706;-67
2023/09/02 08:19:33;;;;;;;;;9.75;9.75;;;;;20.93;68.04;99486.28;5072623;28;45399;-68
2023/09/02 08:21:58;;;;;;;;;8.25;8.25;;;;;20.96;67.51;99483.34;5073880;28;45789;-66
2023/09/02 08:24:24;;;;;;;;;5.25;2.00;;;;;20.98;67.64;99479.59;5074109;28;45318;-65
2023/09/02 08:26:49;;;;;;;;;8.50;8.50;;;;;21.01;66.39;99476.69;5073857;28;45413;-68
2023/09/02 08:29:15;;;;;;;;;11.00;8.00;;;;;21.05;66.21;99475.47;5074415;28;45392;-68
2023/09/02 08:31:40;;;;;;;;;8.50;8.00;;;;;21.10;66.45;99475.97;5073807;28;45439;-68
2023/09/02 08:34:06;;;;;;;;;6.00;6.00;;;;;21.17;65.73;99477.19;5073741;28;45479;-66
2023/09/02 08:36:31;;;;;;;;;5.75;5.75;;;;;21.23;65.68;99467.84;5074160;28;46594;-67
2023/09/02 08:38:56;;;;;;;;;7.25;6.50;;;;;21.32;65.52;99471.63;5073128;28;45378;-67
2023/09/02 08:41:35;;;;;;;;;9.00;8.00;;;;;21.40;65.72;99471.91;5073515;28;45954;-67
2023/09/02 08:44:04;;;;;;;;;9.75;9.50;;;;;21.49;65.83;99466.63;5073698;28;45609;-67
2023/09/02 08:46:32;;;;;;;;;12.00;11.00;;;;;21.56;65.35;99461.66;5073460;28;46314;-67
2023/09/02 08:48:58;;;;;;;;;8.20;7.40;;;;;21.61;65.33;99456.78;5073880;28;45602;-67
2023/09/02 08:51:26;;;;;;;;;7.80;7.80;;;;;21.68;65.69;99449.06;5073776;28;45485;-67
2023/09/02 08:53:56;;;;;;;;;12.00;9.00;;;;;21.75;65.96;99443.09;5072122;28;45393;-67
2023/09/02 08:56:23;;;;;;;;;8.40;8.40;;;;;21.84;66.32;99445.03;5073333;28;46057;-66
2023/09/02 08:58:49;;;;;;;;;1.00;1.00;;;;;21.93;65.58;99441.59;5073506;28;45429;-66
2023/09/02 09:01:20;;;;;;;;;8.20;8.20;;;;;22.03;65.56;99432.81;5071957;28;45390;-66
2023/09/02 09:03:49;;;;;;;;;8.80;7.00;;;;;22.14;65.09;99430.09;5072496;28;45377;-67
2023/09/02 09:06:16;;;;;;;;;7.40;7.40;;;;;22.24;64.44;99425.69;5072970;28;46628;-68
2023/09/02 09:08:44;;;;;;;;;8.00;6.60;;;;;22.34;63.98;99431.13;5071168;28;45350;-68
2023/09/02 09:11:11;;;;;;;;;7.00;7.00;;;;;22.43;63.37;99431.22;5072852;28;45427;-68
2023/09/02 09:13:43;;;;;;;;;8.80;6.40;;;;;22.52;63.28;99434.97;5072247;28;45505;-68
2023/09/02 09:16:24;;;;;;;;;6.60;5.40;;;;;22.60;62.66;99427.13;5072551;28;45402;-66
2023/09/02 09:18:50;;;;;;;;;7.60;7.20;;;;;22.69;62.89;99433.53;5072393;28;45425;-67
2023/09/02 09:21:16;;;;;;;;;5.25;5.25;;;;;22.77;62.60;99426.56;5071887;28;45363;-67
2023/09/02 09:23:42;;;;;;;;;5.00;5.00;;;;;22.87;62.59;99432.00;5072042;28;45419;-66
2023/09/02 09:26:10;;;;;;;;;6.25;6.00;;;;;22.95;61.40;99438.44;5072901;28;45554;-67
2023/09/02 09:28:54;;;;;;;;;6.00;6.00;;;;;23.03;61.54;99429.69;5073181;28;45376;-67
2023/09/02 09:31:20;;;;;;;;;7.00;7.00;;;;;;;;5073158;28;45519;-66
2023/09/02 09:33:53;;;;;;;;;6.00;5.50;;;;;23.18;61.52;99436.41;5072891;28;45420;-68
2023/09/02 09:36:23;;;;;;;;;6.40;6.00;;;;;23.27;61.07;99430.25;5088354;27;45796;-67
2023/09/02 09:38:52;;;;;;;;;6.80;6.80;;;;;23.33;60.51;99431.53;5072642;28;45541;-67
2023/09/02 09:41:17;;;;;;;;;7.40;6.20;;;;;23.41;59.96;99437.09;5072785;28;45348;-68
2023/09/02 09:43:43;;;;;;;;;4.00;4.00;;;;;23.50;59.76;99430.03;5071438;28;45604;-66
2023/09/02 09:46:15;;;;;;;;;7.00;6.50;;;;;23.57;60.06;99425.88;5072919;28;46131;-68
2023/09/02 09:48:49;;;;;;;;;6.20;4.40;;;;;23.64;59.85;99419.78;5072161;28;45409;-67
2023/09/02 09:51:22;;;;;;;;;4.60;4.60;;;;;23.72;59.25;99429.88;5073058;28;45402;-68
2023/09/02 09:53:48;;;;;;;;;7.00;7.00;;;;;23.75;59.54;99431.47;5070912;28;45809;-67
2023/09/02 09:56:13;;;;;;;;;5.50;5.00;;;;;23.79;59.11;99430.19;5071937;28;45605;-67
2023/09/02 09:58:39;;;;;;;;;5.00;5.00;;;;;23.81;58.24;99423.66;5072311;28;45438;-68
2023/09/02 10:01:04;;;;;;;;;8.00;7.25;;;;;23.87;58.35;99427.66;5072595;28;45410;-67
2023/09/02 10:03:33;;;;;;;;;6.00;6.00;;;;;23.91;58.30;99415.63;5072758;28;45419;-68
2023/09/02 10:05:59;;;;;;;;;6.40;5.80;;;;;23.99;57.92;99423.84;5072863;28;46196;-68
2023/09/02 10:08:25;;;;;;;;;6.00;6.00;;;;;24.07;56.30;99431.25;5072570;27;45354;-68
2023/09/02 10:10:51;;;;;;;;;6.25;5.75;;;;;24.14;56.64;99432.38;5072428;28;45489;-68
2023/09/02 10:13:18;;;;;;;;;6.50;6.00;;;;;24.21;56.85;99423.59;5072592;28;46214;-67
2023/09/02 10:15:44;;;;;;;;;5.80;5.80;;;;;24.30;57.00;99428.16;5072164;28;46163;-67
2023/09/02 10:18:09;;;;;;;;;6.25;6.25;;;;;24.37;56.36;99422.22;5072161;28;45432;-68
2023/09/02 10:20:38;;;;;;;;;5.75;5.75;;;;;24.42;56.70;99423.50;5072768;28;45402;-68
2023/09/02 10:23:06;;;;;;;;;6.20;6.00;;;;;24.46;55.79;99422.25;5073535;28;45522;-67
2023/09/02 10:26:08;;;;;;;;;8.80;7.00;;;;;24.55;56.14;99423.22;5075557;28;46305;-67
2023/09/02 10:28:38;;;;;;;;;6.80;6.00;;;;;24.61;54.60;99418.13;5073339;28;45392;-67
2023/09/02 10:31:08;;;;;;;;;6.00;4.80;;;;;24.65;55.51;99419.50;5075747;28;45429;-68
2023/09/02 10:33:34;;;;;;;;;7.00;5.60;;;;;24.72;55.53;99418.94;5074138;28;45503;-67
2023/09/02 10:36:03;;;;;;;;;6.75;6.00;;;;;24.76;54.82;99418.53;5075152;28;46310;-67
2023/09/02 10:38:32;;;;;;;;;5.20;5.20;;;;;24.80;55.45;99421.78;5075773;28;45435;-67
2023/09/02 10:41:15;;;;;;;;;8.00;4.40;;;;;24.83;54.77;99413.38;5075049;28;45357;-67
2023/09/02 10:43:41;;;;;;;;;6.40;6.00;;;;;24.91;55.01;99422.47;5075690;28;45423;-67
2023/09/02 10:46:11;;;;;;;;;7.00;5.60;;;;;24.94;54.49;99406.03;5075759;28;46277;-67
2023/09/02 10:48:43;;;;;;;;;5.00;5.00;;;;;24.95;54.61;99402.34;5075115;28;45411;-67
2023/09/02 10:51:09;;;;;;;;;6.40;6.40;;;;;24.99;54.80;99408.25;5075578;28;45376;-67
2023/09/02 10:53:50;;;;;;;;;5.00;5.00;;;;;25.03;54.49;99409.69;5075651;28;45493;-67
2023/09/02 10:56:26;;;;;;;;;7.00;7.00;;;;;25.08;54.35;99396.63;5075440;28;45431;-67
2023/09/02 10:58:52;;;;;;;;;5.80;4.00;;;;;25.16;54.00;99403.94;5075118;28;45368;-67
2023/09/02 11:01:18;;;;;;;;;6.80;6.80;;;;;25.22;53.73;99401.53;5074515;28;45386;-67
2023/09/02 11:03:47;;;;;;;;;7.25;7.00;;;;;25.27;54.05;99401.94;5075266;28;45570;-67
2023/09/02 11:06:15;;;;;;;;;6.60;5.60;;;;;25.31;54.04;99408.72;5075078;28;45637;-67
2023/09/02 11:08:53;;;;;;;;;5.80;5.80;;;;;25.33;53.25;99393.25;5074667;28;45427;-67
2023/09/02 11:11:19;;;;;;;;;8.20;5.80;;;;;25.37;53.67;99393.78;5090100;27;45462;-67
2023/09/02 11:14:07;;;;;;;;;7.60;6.60;;;;;25.39;52.97;99386.41;5075185;28;45500;-67
2023/09/02 11:16:33;;;;;;;;;6.40;5.60;;;;;25.39;53.19;99378.31;5074761;28;46577;-67
2023/09/02 11:19:00;;;;;;;;;5.20;5.00;;;;;25.44;53.59;99385.97;5075239;28;45451;-67
2023/09/02 11:21:48;;;;;;;;;5.40;5.40;;;;;25.53;53.66;99377.81;5075152;28;45436;-67
2023/09/02 11:24:20;;;;;;;;;6.40;5.40;;;;;25.60;52.30;99372.66;5074995;28;45570;-67
2023/09/02 11:26:57;;;;;;;;;5.60;2.20;;;;;25.66;52.25;99372.91;5074733;28;46573;-68
2023/09/02 11:29:27;;;;;;;;;6.60;3.80;;;;;25.73;51.98;99375.88;5075352;28;45411;-67
2023/09/02 11:31:59;;;;;;;;;5.00;5.00;;;;;25.80;51.72;99377.00;5075466;28;45465;-67